sensor_id;sensor_type;location;lat;lon;timestamp;temperature;humidity
32839;DHT22;19182;41.820;12.808;2024-02-23T00:20:50;10.40;99.90
32839;DHT22;19182;41.820;12.808;2024-02-23T00:28:10;10.30;99.90
32839;DHT22;19182;41.820;12.808;2024-02-23T00:33:05;10.40;99.90
32839;DHT22;19182;41.820;12.808;2024-02-23T00:38:00;10.40;99.90
32839;DHT22;19182;41.820;12.808;2024-02-23T00:42:55;10.40;99.90
32839;DHT22;19182;41.820;12.808;2024-02-23T00:52:54;10.30;99.90
32839;DHT22;19182;41.820;12.808;2024-02-23T00:57:46;10.30;99.90
32839;DHT22;19182;41.820;12.808;2024-02-23T01:05:09;10.40;99.90
32839;DHT22;19182;41.820;12.808;2024-02-23T01:07:36;10.40;99.90
32839;DHT22;19182;41.820;12.808;2024-02-23T01:14:56;10.50;99.90
32839;DHT22;19182;41.820;12.808;2024-02-23T01:32:02;10.70;99.90
32839;DHT22;19182;41.820;12.808;2024-02-23T01:39:20;10.40;99.90
32839;DHT22;19182;41.820;12.808;2024-02-23T01:58:59;10.80;99.90
32839;DHT22;19182;41.820;12.808;2024-02-23T02:01:26;10.80;99.90
32839;DHT22;19182;41.820;12.808;2024-02-23T02:08:46;10.40;99.90
32839;DHT22;19182;41.820;12.808;2024-02-23T02:11:13;10.40;99.90
32839;DHT22;19182;41.820;12.808;2024-02-23T02:25:58;10.60;99.90
32839;DHT22;19182;41.820;12.808;2024-02-23T02:35:53;10.30;99.90
32839;DHT22;19182;41.820;12.808;2024-02-23T02:55:23;10.30;99.90
32839;DHT22;19182;41.820;12.808;2024-02-23T03:10:01;10.10;99.90
32839;DHT22;19182;41.820;12.808;2024-02-23T03:14:53;10.10;99.90
32839;DHT22;19182;41.820;12.808;2024-02-23T03:24:44;10.10;99.90
32839;DHT22;19182;41.820;12.808;2024-02-23T03:34:36;10.10;99.90
32839;DHT22;19182;41.820;12.808;2024-02-23T03:39:30;10.10;99.90
32839;DHT22;19182;41.820;12.808;2024-02-23T04:01:40;10.20;99.90
32839;DHT22;19182;41.820;12.808;2024-02-23T04:04:05;10.30;99.90
32839;DHT22;19182;41.820;12.808;2024-02-23T04:08:59;10.20;99.90
32839;DHT22;19182;41.820;12.808;2024-02-23T04:11:27;10.20;99.90
32839;DHT22;19182;41.820;12.808;2024-02-23T04:13:53;10.30;99.90
32839;DHT22;19182;41.820;12.808;2024-02-23T04:16:27;10.30;99.90
32839;DHT22;19182;41.820;12.808;2024-02-23T04:18:54;10.30;99.90
32839;DHT22;19182;41.820;12.808;2024-02-23T04:21:20;10.30;99.90
32839;DHT22;19182;41.820;12.808;2024-02-23T04:23:46;10.30;99.90
32839;DHT22;19182;41.820;12.808;2024-02-23T04:26:14;10.30;99.90
32839;DHT22;19182;41.820;12.808;2024-02-23T04:28:43;10.40;99.90
32839;DHT22;19182;41.820;12.808;2024-02-23T04:31:09;10.30;99.90
32839;DHT22;19182;41.820;12.808;2024-02-23T04:33:39;10.30;99.90
32839;DHT22;19182;41.820;12.808;2024-02-23T04:36:06;10.40;99.90
32839;DHT22;19182;41.820;12.808;2024-02-23T04:38:35;10.40;99.90
32839;DHT22;19182;41.820;12.808;2024-02-23T04:41:04;10.40;99.90
32839;DHT22;19182;41.820;12.808;2024-02-23T04:43:30;11.40;99.90
32839;DHT22;19182;41.820;12.808;2024-02-23T04:48:23;10.40;99.90
32839;DHT22;19182;41.820;12.808;2024-02-23T04:50:51;10.30;99.90
32839;DHT22;19182;41.820;12.808;2024-02-23T04:53:18;10.40;99.90
32839;DHT22;19182;41.820;12.808;2024-02-23T04:55:44;10.30;99.90
32839;DHT22;19182;41.820;12.808;2024-02-23T04:58:12;10.50;99.90
32839;DHT22;19182;41.820;12.808;2024-02-23T05:00:39;10.50;99.90
32839;DHT22;19182;41.820;12.808;2024-02-23T05:03:07;10.60;99.90
32839;DHT22;19182;41.820;12.808;2024-02-23T05:05:35;10.70;99.90
32839;DHT22;19182;41.820;12.808;2024-02-23T05:08:02;11.20;99.90
32839;DHT22;19182;41.820;12.808;2024-02-23T05:10:30;11.40;99.90
32839;DHT22;19182;41.820;12.808;2024-02-23T05:12:55;11.30;99.90
32839;DHT22;19182;41.820;12.808;2024-02-23T05:15:21;11.10;99.90
32839;DHT22;19182;41.820;12.808;2024-02-23T05:17:48;11.10;99.90
32839;DHT22;19182;41.820;12.808;2024-02-23T05:20:14;10.90;99.90
32839;DHT22;19182;41.820;12.808;2024-02-23T05:22:41;10.70;99.90
32839;DHT22;19182;41.820;12.808;2024-02-23T05:25:07;10.60;99.90
32839;DHT22;19182;41.820;12.808;2024-02-23T05:32:26;10.70;99.90
32839;DHT22;19182;41.820;12.808;2024-02-23T05:34:52;10.70;99.90
32839;DHT22;19182;41.820;12.808;2024-02-23T05:37:20;10.70;99.90
32839;DHT22;19182;41.820;12.808;2024-02-23T05:39:48;10.70;99.90
32839;DHT22;19182;41.820;12.808;2024-02-23T05:42:18;10.70;99.90
32839;DHT22;19182;41.820;12.808;2024-02-23T05:44:44;10.70;99.90
32839;DHT22;19182;41.820;12.808;2024-02-23T05:49:46;10.60;99.90
32839;DHT22;19182;41.820;12.808;2024-02-23T05:52:12;10.60;99.90
32839;DHT22;19182;41.820;12.808;2024-02-23T05:54:38;10.60;99.90
32839;DHT22;19182;41.820;12.808;2024-02-23T05:57:05;10.60;99.90
32839;DHT22;19182;41.820;12.808;2024-02-23T05:59:31;10.70;99.90
32839;DHT22;19182;41.820;12.808;2024-02-23T06:01:58;10.80;99.90
32839;DHT22;19182;41.820;12.808;2024-02-23T06:04:24;10.70;99.90
32839;DHT22;19182;41.820;12.808;2024-02-23T06:06:51;10.60;99.90
32839;DHT22;19182;41.820;12.808;2024-02-23T06:09:17;12.10;99.90
32839;DHT22;19182;41.820;12.808;2024-02-23T06:11:44;10.50;99.90
32839;DHT22;19182;41.820;12.808;2024-02-23T06:14:10;10.60;99.90
32839;DHT22;19182;41.820;12.808;2024-02-23T06:16:41;10.60;99.90
32839;DHT22;19182;41.820;12.808;2024-02-23T06:19:07;10.70;99.90
32839;DHT22;19182;41.820;12.808;2024-02-23T06:21:33;10.70;99.90
32839;DHT22;19182;41.820;12.808;2024-02-23T06:24:00;10.70;99.90
32839;DHT22;19182;41.820;12.808;2024-02-23T06:26:27;10.70;99.90
32839;DHT22;19182;41.820;12.808;2024-02-23T06:28:54;10.70;99.90
32839;DHT22;19182;41.820;12.808;2024-02-23T06:31:23;10.70;99.90
32839;DHT22;19182;41.820;12.808;2024-02-23T06:33:49;10.70;99.90
32839;DHT22;19182;41.820;12.808;2024-02-23T06:36:17;10.80;99.90
32839;DHT22;19182;41.820;12.808;2024-02-23T06:38:46;10.70;99.90
32839;DHT22;19182;41.820;12.808;2024-02-23T06:41:12;10.80;99.90
32839;DHT22;19182;41.820;12.808;2024-02-23T06:43:39;11.00;99.90
32839;DHT22;19182;41.820;12.808;2024-02-23T06:46:08;11.00;99.90
32839;DHT22;19182;41.820;12.808;2024-02-23T06:48:39;11.00;99.90
32839;DHT22;19182;41.820;12.808;2024-02-23T06:51:05;10.70;99.90
32839;DHT22;19182;41.820;12.808;2024-02-23T06:53:34;10.90;99.90
32839;DHT22;19182;41.820;12.808;2024-02-23T06:56:12;10.90;99.90
32839;DHT22;19182;41.820;12.808;2024-02-23T06:58:39;10.80;99.90
32839;DHT22;19182;41.820;12.808;2024-02-23T07:01:07;10.90;99.90
32839;DHT22;19182;41.820;12.808;2024-02-23T07:03:36;10.90;99.90
32839;DHT22;19182;41.820;12.808;2024-02-23T07:06:03;11.20;99.90
32839;DHT22;19182;41.820;12.808;2024-02-23T07:08:30;11.70;99.90
32839;DHT22;19182;41.820;12.808;2024-02-23T07:10:57;11.80;99.90
32839;DHT22;19182;41.820;12.808;2024-02-23T07:13:24;11.80;99.90
32839;DHT22;19182;41.820;12.808;2024-02-23T07:15:52;11.70;99.90
32839;DHT22;19182;41.820;12.808;2024-02-23T07:18:18;11.70;99.90
32839;DHT22;19182;41.820;12.808;2024-02-23T07:20:44;11.70;99.90
32839;DHT22;19182;41.820;12.808;2024-02-23T07:25:37;11.80;99.90
32839;DHT22;19182;41.820;12.808;2024-02-23T07:28:03;11.80;99.90
32839;DHT22;19182;41.820;12.808;2024-02-23T07:30:32;11.70;99.90
32839;DHT22;19182;41.820;12.808;2024-02-23T07:35:24;11.70;99.90
32839;DHT22;19182;41.820;12.808;2024-02-23T07:37:49;11.80;99.90
32839;DHT22;19182;41.820;12.808;2024-02-23T07:40:16;11.80;99.90
32839;DHT22;19182;41.820;12.808;2024-02-23T07:42:44;11.80;99.90
32839;DHT22;19182;41.820;12.808;2024-02-23T07:45:11;11.80;99.90
32839;DHT22;19182;41.820;12.808;2024-02-23T07:47:38;11.80;99.90
32839;DHT22;19182;41.820;12.808;2024-02-23T07:52:35;11.80;99.90
32839;DHT22;19182;41.820;12.808;2024-02-23T07:55:00;11.90;99.90
32839;DHT22;19182;41.820;12.808;2024-02-23T07:57:29;11.90;99.90
32839;DHT22;19182;41.820;12.808;2024-02-23T07:59:58;12.00;99.90
32839;DHT22;19182;41.820;12.808;2024-02-23T08:02:25;12.00;99.90
32839;DHT22;19182;41.820;12.808;2024-02-23T08:04:54;11.90;99.90
32839;DHT22;19182;41.820;12.808;2024-02-23T08:07:23;11.90;99.90
32839;DHT22;19182;41.820;12.808;2024-02-23T08:09:49;11.90;99.90
32839;DHT22;19182;41.820;12.808;2024-02-23T08:12:26;12.00;99.90
32839;DHT22;19182;41.820;12.808;2024-02-23T08:14:53;12.00;99.90
32839;DHT22;19182;41.820;12.808;2024-02-23T08:17:20;12.00;99.90
32839;DHT22;19182;41.820;12.808;2024-02-23T08:22:27;11.90;99.90
32839;DHT22;19182;41.820;12.808;2024-02-23T08:24:53;11.90;99.90
32839;DHT22;19182;41.820;12.808;2024-02-23T08:27:21;12.30;99.90
32839;DHT22;19182;41.820;12.808;2024-02-23T08:34:42;11.80;99.90
32839;DHT22;19182;41.820;12.808;2024-02-23T08:37:09;11.90;99.90
32839;DHT22;19182;41.820;12.808;2024-02-23T08:39:36;11.90;99.90
32839;DHT22;19182;41.820;12.808;2024-02-23T08:42:02;12.00;99.90
32839;DHT22;19182;41.820;12.808;2024-02-23T08:44:28;12.00;99.90
32839;DHT22;19182;41.820;12.808;2024-02-23T08:49:23;12.00;99.90
32839;DHT22;19182;41.820;12.808;2024-02-23T08:51:50;12.10;99.90
32839;DHT22;19182;41.820;12.808;2024-02-23T08:54:16;12.10;99.90
32839;DHT22;19182;41.820;12.808;2024-02-23T08:56:41;12.20;99.90
32839;DHT22;19182;41.820;12.808;2024-02-23T08:59:08;12.20;99.90
32839;DHT22;19182;41.820;12.808;2024-02-23T09:01:40;12.30;99.90
32839;DHT22;19182;41.820;12.808;2024-02-23T09:06:37;12.30;99.90
32839;DHT22;19182;41.820;12.808;2024-02-23T09:09:09;12.30;99.90
32839;DHT22;19182;41.820;12.808;2024-02-23T09:11:39;12.40;99.90
32839;DHT22;19182;41.820;12.808;2024-02-23T09:16:32;12.30;99.90
32839;DHT22;19182;41.820;12.808;2024-02-23T09:19:00;12.40;99.90
32839;DHT22;19182;41.820;12.808;2024-02-23T09:21:25;12.40;99.90
32839;DHT22;19182;41.820;12.808;2024-02-23T09:23:51;12.40;99.90
32839;DHT22;19182;41.820;12.808;2024-02-23T09:26:17;12.40;99.90
32839;DHT22;19182;41.820;12.808;2024-02-23T09:28:44;12.40;99.90
32839;DHT22;19182;41.820;12.808;2024-02-23T09:31:11;12.50;99.90
32839;DHT22;19182;41.820;12.808;2024-02-23T09:33:36;12.50;99.90
32839;DHT22;19182;41.820;12.808;2024-02-23T09:36:04;12.30;99.90
32839;DHT22;19182;41.820;12.808;2024-02-23T09:38:32;12.30;99.90
32839;DHT22;19182;41.820;12.808;2024-02-23T09:41:00;12.30;99.90
32839;DHT22;19182;41.820;12.808;2024-02-23T09:43:28;12.20;99.90
32839;DHT22;19182;41.820;12.808;2024-02-23T09:45:56;12.30;99.90
32839;DHT22;19182;41.820;12.808;2024-02-23T09:48:24;12.30;99.90
32839;DHT22;19182;41.820;12.808;2024-02-23T09:50:52;12.30;99.90
32839;DHT22;19182;41.820;12.808;2024-02-23T09:53:19;12.50;99.90
32839;DHT22;19182;41.820;12.808;2024-02-23T09:55:47;12.50;99.90
32839;DHT22;19182;41.820;12.808;2024-02-23T09:58:16;12.50;99.90
32839;DHT22;19182;41.820;12.808;2024-02-23T10:05:43;12.40;99.90
32839;DHT22;19182;41.820;12.808;2024-02-23T10:08:11;12.50;99.90
32839;DHT22;19182;41.820;12.808;2024-02-23T10:10:42;12.60;99.90
32839;DHT22;19182;41.820;12.808;2024-02-23T10:13:11;12.70;99.90
32839;DHT22;19182;41.820;12.808;2024-02-23T10:15:38;12.70;99.90
32839;DHT22;19182;41.820;12.808;2024-02-23T10:18:05;12.70;99.90
32839;DHT22;19182;41.820;12.808;2024-02-23T10:20:31;12.70;99.90
32839;DHT22;19182;41.820;12.808;2024-02-23T10:22:57;12.80;99.90
32839;DHT22;19182;41.820;12.808;2024-02-23T10:25:23;12.80;99.90
32839;DHT22;19182;41.820;12.808;2024-02-23T10:27:48;12.80;99.90
32839;DHT22;19182;41.820;12.808;2024-02-23T10:30:16;12.80;99.90
32839;DHT22;19182;41.820;12.808;2024-02-23T10:32:43;12.80;99.90
32839;DHT22;19182;41.820;12.808;2024-02-23T10:35:14;12.80;99.90
32839;DHT22;19182;41.820;12.808;2024-02-23T10:37:51;12.80;99.90
32839;DHT22;19182;41.820;12.808;2024-02-23T10:40:19;10.30;99.90
32839;DHT22;19182;41.820;12.808;2024-02-23T10:42:46;12.90;99.90
32839;DHT22;19182;41.820;12.808;2024-02-23T10:45:25;13.00;99.90
32839;DHT22;19182;41.820;12.808;2024-02-23T10:52:47;13.00;99.90
32839;DHT22;19182;41.820;12.808;2024-02-23T10:55:14;13.00;99.90
32839;DHT22;19182;41.820;12.808;2024-02-23T10:57:42;12.90;99.90
32839;DHT22;19182;41.820;12.808;2024-02-23T11:00:09;13.00;99.90
32839;DHT22;19182;41.820;12.808;2024-02-23T11:02:48;13.00;99.90
32839;DHT22;19182;41.820;12.808;2024-02-23T11:10:13;13.00;99.90
32839;DHT22;19182;41.820;12.808;2024-02-23T11:12:39;13.00;99.90
32839;DHT22;19182;41.820;12.808;2024-02-23T11:15:06;13.00;99.90
32839;DHT22;19182;41.820;12.808;2024-02-23T11:20:05;13.00;99.90
32839;DHT22;19182;41.820;12.808;2024-02-23T11:22:35;12.90;99.90
32839;DHT22;19182;41.820;12.808;2024-02-23T11:25:06;13.00;99.90
32839;DHT22;19182;41.820;12.808;2024-02-23T11:27:36;12.90;99.90
32839;DHT22;19182;41.820;12.808;2024-02-23T11:30:07;12.90;99.90
32839;DHT22;19182;41.820;12.808;2024-02-23T11:32:46;13.00;99.90
32839;DHT22;19182;41.820;12.808;2024-02-23T11:35:17;12.90;99.90
32839;DHT22;19182;41.820;12.808;2024-02-23T11:37:53;12.90;99.90
32839;DHT22;19182;41.820;12.808;2024-02-23T11:40:31;12.90;99.90
32839;DHT22;19182;41.820;12.808;2024-02-23T11:43:01;12.90;99.90
32839;DHT22;19182;41.820;12.808;2024-02-23T11:45:30;12.90;99.90
32839;DHT22;19182;41.820;12.808;2024-02-23T11:47:56;12.80;99.90
32839;DHT22;19182;41.820;12.808;2024-02-23T11:50:23;12.80;99.90
32839;DHT22;19182;41.820;12.808;2024-02-23T11:52:50;12.80;99.90
32839;DHT22;19182;41.820;12.808;2024-02-23T11:55:19;12.70;99.90
32839;DHT22;19182;41.820;12.808;2024-02-23T12:00:15;12.60;99.90
32839;DHT22;19182;41.820;12.808;2024-02-23T12:02:51;12.60;99.90
32839;DHT22;19182;41.820;12.808;2024-02-23T12:05:20;12.50;99.90
32839;DHT22;19182;41.820;12.808;2024-02-23T12:07:48;12.50;99.90
32839;DHT22;19182;41.820;12.808;2024-02-23T12:10:14;12.50;99.90
32839;DHT22;19182;41.820;12.808;2024-02-23T12:12:41;12.50;99.90
32839;DHT22;19182;41.820;12.808;2024-02-23T12:15:08;12.50;99.90
32839;DHT22;19182;41.820;12.808;2024-02-23T12:17:37;12.60;99.90
32839;DHT22;19182;41.820;12.808;2024-02-23T12:20:03;12.50;99.90
32839;DHT22;19182;41.820;12.808;2024-02-23T12:22:30;12.60;99.90
32839;DHT22;19182;41.820;12.808;2024-02-23T12:25:03;12.50;99.90
32839;DHT22;19182;41.820;12.808;2024-02-23T12:27:31;12.50;99.90
32839;DHT22;19182;41.820;12.808;2024-02-23T12:29:57;12.60;99.90
32839;DHT22;19182;41.820;12.808;2024-02-23T12:32:23;12.60;99.90
32839;DHT22;19182;41.820;12.808;2024-02-23T12:37:24;12.70;99.90
32839;DHT22;19182;41.820;12.808;2024-02-23T12:39:50;12.70;99.90
32839;DHT22;19182;41.820;12.808;2024-02-23T12:42:18;12.70;99.90
32839;DHT22;19182;41.820;12.808;2024-02-23T12:44:45;12.60;99.90
32839;DHT22;19182;41.820;12.808;2024-02-23T12:52:05;12.60;99.90
32839;DHT22;19182;41.820;12.808;2024-02-23T12:57:08;12.60;99.90
32839;DHT22;19182;41.820;12.808;2024-02-23T12:59:34;12.50;99.90
32839;DHT22;19182;41.820;12.808;2024-02-23T13:02:07;12.60;99.90
32839;DHT22;19182;41.820;12.808;2024-02-23T13:04:33;12.60;99.90
32839;DHT22;19182;41.820;12.808;2024-02-23T13:06:59;12.60;99.90
32839;DHT22;19182;41.820;12.808;2024-02-23T13:11:51;12.40;99.90
32839;DHT22;19182;41.820;12.808;2024-02-23T13:14:19;12.50;99.90
32839;DHT22;19182;41.820;12.808;2024-02-23T13:16:45;12.50;99.90
32839;DHT22;19182;41.820;12.808;2024-02-23T13:19:11;12.50;99.90
32839;DHT22;19182;41.820;12.808;2024-02-23T13:21:37;12.50;99.90
32839;DHT22;19182;41.820;12.808;2024-02-23T13:26:29;12.50;99.90
32839;DHT22;19182;41.820;12.808;2024-02-23T13:28:56;12.50;99.90
32839;DHT22;19182;41.820;12.808;2024-02-23T13:31:23;12.50;99.90
32839;DHT22;19182;41.820;12.808;2024-02-23T13:36:16;12.50;99.90
32839;DHT22;19182;41.820;12.808;2024-02-23T13:41:08;12.50;99.90
32839;DHT22;19182;41.820;12.808;2024-02-23T13:43:35;12.50;99.90
32839;DHT22;19182;41.820;12.808;2024-02-23T13:46:02;12.50;99.90
32839;DHT22;19182;41.820;12.808;2024-02-23T13:48:30;12.50;99.90
32839;DHT22;19182;41.820;12.808;2024-02-23T13:50:56;12.50;99.90
32839;DHT22;19182;41.820;12.808;2024-02-23T13:53:22;12.40;99.90
32839;DHT22;19182;41.820;12.808;2024-02-23T13:55:56;12.40;99.90
32839;DHT22;19182;41.820;12.808;2024-02-23T13:58:29;12.40;99.90
32839;DHT22;19182;41.820;12.808;2024-02-23T14:00:55;12.50;99.90
32839;DHT22;19182;41.820;12.808;2024-02-23T14:03:24;12.40;99.90
32839;DHT22;19182;41.820;12.808;2024-02-23T14:05:50;12.40;99.90
32839;DHT22;19182;41.820;12.808;2024-02-23T14:08:18;12.50;99.90
32839;DHT22;19182;41.820;12.808;2024-02-23T14:10:45;12.50;99.90
32839;DHT22;19182;41.820;12.808;2024-02-23T14:18:05;12.50;99.90
32839;DHT22;19182;41.820;12.808;2024-02-23T14:20:30;14.90;99.90
32839;DHT22;19182;41.820;12.808;2024-02-23T14:22:58;12.60;99.90
32839;DHT22;19182;41.820;12.808;2024-02-23T14:25:23;12.60;99.90
32839;DHT22;19182;41.820;12.808;2024-02-23T14:27:50;12.60;99.90
32839;DHT22;19182;41.820;12.808;2024-02-23T14:30:16;12.60;99.90
32839;DHT22;19182;41.820;12.808;2024-02-23T14:32:43;12.60;99.90
32839;DHT22;19182;41.820;12.808;2024-02-23T14:35:09;12.60;99.90
32839;DHT22;19182;41.820;12.808;2024-02-23T14:40:02;12.60;99.90
32839;DHT22;19182;41.820;12.808;2024-02-23T14:42:28;12.60;99.90
32839;DHT22;19182;41.820;12.808;2024-02-23T14:45:03;12.60;99.90
32839;DHT22;19182;41.820;12.808;2024-02-23T14:47:35;12.60;99.90
32839;DHT22;19182;41.820;12.808;2024-02-23T14:50:01;12.50;99.90
32839;DHT22;19182;41.820;12.808;2024-02-23T14:52:28;12.50;99.90
32839;DHT22;19182;41.820;12.808;2024-02-23T14:54:56;12.50;99.90
32839;DHT22;19182;41.820;12.808;2024-02-23T14:57:24;12.60;99.90
32839;DHT22;19182;41.820;12.808;2024-02-23T14:59:51;12.60;99.90
32839;DHT22;19182;41.820;12.808;2024-02-23T15:02:21;12.60;99.90
32839;DHT22;19182;41.820;12.808;2024-02-23T15:04:48;12.60;99.90
32839;DHT22;19182;41.820;12.808;2024-02-23T15:07:16;12.60;99.90
32839;DHT22;19182;41.820;12.808;2024-02-23T15:12:15;12.60;99.90
32839;DHT22;19182;41.820;12.808;2024-02-23T15:14:41;12.60;99.90
32839;DHT22;19182;41.820;12.808;2024-02-23T15:19:34;12.60;99.90
32839;DHT22;19182;41.820;12.808;2024-02-23T15:22:00;12.60;99.90
32839;DHT22;19182;41.820;12.808;2024-02-23T15:24:26;12.60;99.90
32839;DHT22;19182;41.820;12.808;2024-02-23T15:26:53;12.60;99.90
32839;DHT22;19182;41.820;12.808;2024-02-23T15:34:12;12.60;99.90
32839;DHT22;19182;41.820;12.808;2024-02-23T15:36:39;12.60;99.90
32839;DHT22;19182;41.820;12.808;2024-02-23T15:39:05;12.70;99.90
32839;DHT22;19182;41.820;12.808;2024-02-23T15:41:32;12.70;99.90
32839;DHT22;19182;41.820;12.808;2024-02-23T15:44:00;12.70;99.90
32839;DHT22;19182;41.820;12.808;2024-02-23T15:46:26;12.70;99.90
32839;DHT22;19182;41.820;12.808;2024-02-23T15:48:53;12.70;99.90
32839;DHT22;19182;41.820;12.808;2024-02-23T15:51:19;12.60;99.90
32839;DHT22;19182;41.820;12.808;2024-02-23T16:06:16;12.40;99.90
32839;DHT22;19182;41.820;12.808;2024-02-23T16:09:04;12.40;99.90
32839;DHT22;19182;41.820;12.808;2024-02-23T16:28:45;12.40;99.90
32839;DHT22;19182;41.820;12.808;2024-02-23T16:31:13;12.50;99.90
32839;DHT22;19182;41.820;12.808;2024-02-23T16:38:39;12.50;99.90
32839;DHT22;19182;41.820;12.808;2024-02-23T17:00:53;12.50;99.90
32839;DHT22;19182;41.820;12.808;2024-02-23T17:08:16;12.50;99.90
32839;DHT22;19182;41.820;12.808;2024-02-23T17:18:03;12.50;99.90
32839;DHT22;19182;41.820;12.808;2024-02-23T17:42:40;12.50;99.90
32839;DHT22;19182;41.820;12.808;2024-02-23T18:24:28;11.70;99.90
32839;DHT22;19182;41.820;12.808;2024-02-23T18:44:11;11.10;99.90
32839;DHT22;19182;41.820;12.808;2024-02-23T18:46:39;11.10;99.90
32839;DHT22;19182;41.820;12.808;2024-02-23T20:00:13;10.80;99.90
32839;DHT22;19182;41.820;12.808;2024-02-23T20:39:31;10.30;99.90
32839;DHT22;19182;41.820;12.808;2024-02-23T20:41:58;10.20;99.90
32839;DHT22;19182;41.820;12.808;2024-02-23T21:23:42;10.00;99.90
32839;DHT22;19182;41.820;12.808;2024-02-23T21:26:08;10.00;99.90
32839;DHT22;19182;41.820;12.808;2024-02-23T21:35:57;9.80;99.90
32839;DHT22;19182;41.820;12.808;2024-02-23T22:10:08;9.60;99.90
32839;DHT22;19182;41.820;12.808;2024-02-23T22:17:30;9.50;99.90
32839;DHT22;19182;41.820;12.808;2024-02-23T22:22:24;9.40;99.90
32839;DHT22;19182;41.820;12.808;2024-02-23T22:29:49;9.30;99.90
32839;DHT22;19182;41.820;12.808;2024-02-23T23:04:03;8.80;99.90
